createdAt,value
2017-02-12T00:00:45.568Z,6.85
2017-02-12T00:01:45.506Z,6.85
2017-02-12T00:02:45.443Z,6.85
2017-02-12T00:03:45.377Z,6.94
2017-02-12T00:04:45.317Z,6.85
2017-02-12T00:05:45.255Z,7.42
2017-02-12T00:06:45.187Z,7.42
2017-02-12T00:07:45.123Z,7.23
2017-02-12T00:08:45.059Z,6.85
2017-02-12T00:09:44.997Z,7.23
2017-02-12T00:10:44.932Z,6.85
2017-02-12T00:11:44.867Z,6.94
2017-02-12T00:12:44.809Z,7.14
2017-02-12T00:13:44.746Z,7.14
2017-02-12T00:14:44.677Z,7.23
2017-02-12T00:15:44.615Z,7.42
2017-02-12T00:16:44.550Z,7.23
2017-02-12T00:17:44.489Z,7.14
2017-02-12T00:18:44.423Z,7.52
2017-02-12T00:19:44.361Z,7.23
2017-02-12T00:20:44.297Z,7.23
2017-02-12T00:21:44.234Z,7.33
2017-02-12T00:22:44.171Z,7.04
2017-02-12T00:23:44.108Z,7.23
2017-02-12T00:24:44.044Z,7.62
2017-02-12T00:25:43.978Z,7.42
2017-02-12T00:26:43.915Z,7.33
2017-02-12T00:27:43.851Z,7.52
2017-02-12T00:28:43.788Z,7.62
2017-02-12T00:29:43.722Z,7.62
2017-02-12T00:30:43.661Z,7.23
2017-02-12T00:31:43.599Z,7.33
2017-02-12T00:32:43.535Z,7.33
2017-02-12T00:33:43.470Z,7.52
2017-02-12T00:34:43.408Z,7.62
2017-02-12T00:35:43.346Z,7.62
2017-02-12T00:36:43.286Z,7.52
2017-02-12T00:37:43.216Z,7.62
2017-02-12T00:38:43.151Z,7.62
2017-02-12T00:39:43.088Z,7.42
2017-02-12T00:40:43.025Z,7.33
2017-02-12T00:41:42.962Z,7.42
2017-02-12T00:42:42.898Z,7.42
2017-02-12T00:43:42.837Z,7.33
2017-02-12T00:44:42.771Z,7.33
2017-02-12T00:45:42.709Z,7.23
2017-02-12T00:46:42.647Z,7.23
2017-02-12T00:47:42.580Z,7.33
2017-02-12T00:48:42.126Z,7.81
2017-02-12T00:49:42.454Z,7.42
2017-02-12T00:50:42.392Z,7.23
2017-02-12T00:51:42.327Z,7.23
2017-02-12T00:52:42.269Z,7.33
2017-02-12T00:53:42.199Z,7.23
2017-02-12T00:54:42.139Z,7.42
2017-02-12T00:55:42.327Z,7.33
2017-02-12T00:56:42.009Z,7.33
2017-02-12T00:57:41.947Z,7.62
2017-02-12T00:58:41.881Z,7.62
2017-02-12T00:59:41.428Z,7.71
2017-02-12T01:01:13.074Z,7.62
2017-02-12T01:02:12.987Z,7.42
2017-02-12T01:03:12.913Z,7.52
2017-02-12T01:04:12.849Z,7.52
2017-02-12T01:05:12.793Z,7.23
2017-02-12T01:06:12.728Z,7.23
2017-02-12T01:07:12.690Z,7.62
2017-02-12T01:08:12.595Z,7.23
2017-02-12T01:09:12.544Z,7.62
2017-02-12T01:10:12.465Z,7.14
2017-02-12T01:11:12.406Z,7.52
2017-02-12T01:12:12.344Z,7.62
2017-02-12T01:13:12.280Z,7.52
2017-02-12T01:14:12.214Z,7.71
2017-02-12T01:15:12.151Z,7.52
2017-02-12T01:16:12.087Z,7.23
2017-02-12T01:17:12.026Z,7.62
2017-02-12T01:18:11.958Z,7.52
2017-02-12T01:19:11.906Z,7.14
2017-02-12T01:20:11.830Z,7.62
2017-02-12T01:21:11.773Z,7.71
2017-02-12T01:22:11.713Z,7.14
2017-02-12T01:23:11.643Z,7.62
2017-02-12T01:24:11.593Z,7.14
2017-02-12T01:25:11.517Z,7.62
2017-02-12T01:26:11.448Z,7.14
2017-02-12T01:27:11.391Z,7.62
2017-02-12T01:28:11.321Z,7.62
2017-02-12T01:29:11.261Z,7.71
2017-02-12T01:30:11.195Z,7.62
2017-02-12T01:31:10.744Z,7.23
2017-02-12T01:32:11.067Z,7.81
2017-02-12T01:33:11.006Z,7.81
2017-02-12T01:34:10.941Z,7.71
2017-02-12T01:35:11.140Z,7.71
2017-02-12T01:36:10.816Z,7.71
2017-02-12T01:37:10.362Z,7.62
2017-02-12T01:38:10.299Z,7.71
2017-02-12T01:39:10.623Z,7.23
2017-02-12T01:40:10.170Z,7.9
2017-02-12T01:41:10.105Z,7.04
2017-02-12T01:42:10.041Z,7.9
2017-02-12T01:43:10.368Z,6.94
2017-02-12T01:44:10.305Z,7.52
2017-02-12T01:45:10.241Z,7.52
2017-02-12T01:46:10.180Z,7.04
2017-02-12T01:47:10.124Z,7.33
2017-02-12T01:48:10.059Z,7.14
2017-02-12T01:49:09.598Z,7.71
2017-02-12T01:50:10.224Z,7.42
2017-02-12T01:51:09.863Z,7.23
2017-02-12T01:52:09.406Z,7.71
2017-02-12T01:53:09.733Z,7.42
2017-02-12T01:54:09.289Z,7.71
2017-02-12T01:55:09.875Z,7.42
2017-02-12T01:56:09.542Z,7.71
2017-02-12T01:57:09.477Z,7.42
2017-02-12T01:58:09.417Z,7.62
2017-02-12T01:59:09.356Z,7.52
2017-02-12T02:00:08.900Z,7.62
2017-02-12T02:01:09.223Z,7.62
2017-02-12T02:02:09.163Z,7.33
2017-02-12T02:03:09.099Z,7.33
2017-02-12T02:04:09.034Z,7.42
2017-02-12T02:05:09.222Z,7.52
2017-02-12T02:06:08.907Z,7.42
2017-02-12T02:07:08.841Z,7.33
2017-02-12T02:08:08.780Z,7.42
2017-02-12T02:09:08.716Z,7.42
2017-02-12T02:10:08.900Z,7.62
2017-02-12T02:11:08.590Z,7.42
2017-02-12T02:12:08.554Z,7.52
2017-02-12T02:13:08.461Z,7.52
2017-02-12T02:14:08.398Z,7.62
2017-02-12T02:15:08.583Z,7.52
2017-02-12T02:16:08.272Z,7.52
2017-02-12T02:17:08.207Z,7.52
2017-02-12T02:18:08.140Z,7.9
2017-02-12T02:19:08.131Z,7.71
2017-02-12T02:20:07.627Z,7.62
2017-02-12T02:21:07.954Z,7.52
2017-02-12T02:22:07.889Z,7.62
2017-02-12T02:23:07.828Z,7.62
2017-02-12T02:24:07.764Z,7.62
2017-02-12T02:25:07.708Z,7.62
2017-02-12T02:26:07.245Z,7.62
2017-02-12T02:27:07.571Z,7.62
2017-02-12T02:28:07.508Z,7.62
2017-02-12T02:29:07.443Z,7.42
2017-02-12T02:30:07.018Z,7.62
2017-02-12T02:31:07.320Z,7.62
2017-02-12T02:32:07.256Z,7.42
2017-02-12T02:33:07.191Z,7.62
2017-02-12T02:34:07.129Z,7.52
2017-02-12T02:35:07.064Z,7.62
2017-02-12T02:36:07.015Z,7.62
2017-02-12T02:37:06.938Z,7.52
2017-02-12T02:38:06.876Z,7.52
2017-02-12T02:39:06.811Z,7.52
2017-02-12T02:40:06.745Z,7.33
2017-02-12T02:41:06.684Z,7.33
2017-02-12T02:42:06.620Z,7.52
2017-02-12T02:43:06.562Z,7.62
2017-02-12T02:44:06.491Z,7.33
2017-02-12T02:45:06.502Z,7.33
2017-02-12T02:46:06.363Z,7.52
2017-02-12T02:47:06.309Z,7.42
2017-02-12T02:48:06.237Z,7.33
2017-02-12T02:49:06.173Z,7.33
2017-02-12T02:50:06.113Z,7.42
2017-02-12T02:51:06.044Z,7.33
2017-02-12T02:52:05.984Z,7.42
2017-02-12T02:53:05.919Z,7.33
2017-02-12T02:54:05.855Z,7.33
2017-02-12T02:55:05.792Z,7.42
2017-02-12T02:56:05.730Z,7.23
2017-02-12T02:57:05.275Z,7.42
2017-02-12T02:58:05.604Z,7.23
2017-02-12T02:59:05.542Z,7.23
2017-02-12T03:00:05.089Z,7.23
2017-02-12T03:01:05.414Z,7.33
2017-02-12T03:02:05.351Z,7.33
2017-02-12T03:03:05.283Z,7.33
2017-02-12T03:04:05.222Z,7.42
2017-02-12T03:05:05.175Z,7.33
2017-02-12T03:06:05.160Z,7.62
2017-02-12T03:07:05.031Z,7.62
2017-02-12T03:08:04.967Z,7.23
2017-02-12T03:09:04.905Z,7.33
2017-02-12T03:10:04.900Z,7.33
2017-02-12T03:11:04.412Z,7.42
2017-02-12T03:12:04.711Z,7.33
2017-02-12T03:13:04.697Z,7.33
2017-02-12T03:14:04.585Z,7.33
2017-02-12T03:15:04.533Z,7.33
2017-02-12T03:16:04.459Z,7.71
2017-02-12T03:17:04.398Z,7.62
2017-02-12T03:18:04.335Z,7.71
2017-02-12T03:19:04.266Z,7.71
2017-02-12T03:20:04.457Z,7.52
2017-02-12T03:21:04.143Z,7.71
2017-02-12T03:22:04.078Z,7.71
2017-02-12T03:23:04.016Z,7.62
2017-02-12T03:24:03.955Z,7.62
2017-02-12T03:25:03.887Z,7.71
2017-02-12T03:26:03.823Z,7.71
2017-02-12T03:27:03.767Z,7.81
2017-02-12T03:28:03.704Z,7.62
2017-02-12T03:29:03.635Z,7.71
2017-02-12T03:30:03.601Z,7.81
2017-02-12T03:31:03.503Z,7.71
2017-02-12T03:32:03.439Z,7.81
2017-02-12T03:33:03.376Z,7.81
2017-02-12T03:34:03.313Z,7.81
2017-02-12T03:35:03.271Z,7.9
2017-02-12T03:36:03.186Z,7.71
2017-02-12T03:37:03.122Z,7.71
2017-02-12T03:38:03.059Z,7.71
2017-02-12T03:39:02.998Z,7.9
2017-02-12T03:40:02.932Z,7.9
2017-02-12T03:41:02.869Z,7.9
2017-02-12T03:42:02.806Z,7.9
2017-02-12T03:43:02.742Z,7.9
2017-02-12T03:44:02.676Z,7.71
2017-02-12T03:45:02.615Z,8
2017-02-12T03:46:02.548Z,7.9
2017-02-12T03:47:02.487Z,7.9
2017-02-12T03:48:02.435Z,7.9
2017-02-12T03:49:02.361Z,7.9
2017-02-12T03:50:02.545Z,7.9
2017-02-12T03:51:02.235Z,7.9
2017-02-12T03:52:02.169Z,7.9
2017-02-12T03:53:02.112Z,7.81
2017-02-12T03:54:02.039Z,8
2017-02-12T03:55:01.590Z,7.9
2017-02-12T03:56:01.941Z,7.9
2017-02-12T03:57:01.853Z,8
2017-02-12T03:58:01.787Z,8
2017-02-12T03:59:01.726Z,8
2017-02-12T04:00:01.659Z,7.71
2017-02-12T04:01:01.599Z,8
2017-02-12T04:02:01.531Z,8
2017-02-12T04:03:01.466Z,8.1
2017-02-12T04:04:01.403Z,7.9
2017-02-12T04:05:01.360Z,8.1
2017-02-12T04:06:01.277Z,7.62
2017-02-12T04:07:01.216Z,7.52
2017-02-12T04:08:01.153Z,8
2017-02-12T04:09:01.087Z,8.1
2017-02-12T04:10:01.024Z,8.1
2017-02-12T04:11:00.962Z,7.81
2017-02-12T04:12:00.902Z,7.52
2017-02-12T04:13:00.832Z,7.52
2017-02-12T04:14:00.784Z,7.42
2017-02-12T04:15:00.708Z,8
2017-02-12T04:16:00.644Z,7.62
2017-02-12T04:17:00.578Z,7.71
2017-02-12T04:18:00.517Z,7.81
2017-02-12T04:19:00.453Z,7.52
2017-02-12T04:20:00.389Z,7.52
2017-02-12T04:21:00.326Z,7.9
2017-02-12T04:22:00.314Z,7.52
2017-02-12T04:23:00.202Z,7.81
2017-02-12T04:24:00.183Z,7.81
2017-02-12T04:25:00.071Z,7.9
2017-02-12T04:26:00.007Z,7.62
2017-02-12T04:26:59.945Z,7.52
2017-02-12T04:27:59.880Z,7.52
2017-02-12T04:28:59.816Z,7.9
2017-02-12T04:29:59.753Z,7.9
2017-02-12T04:30:59.687Z,7.9
2017-02-12T04:31:59.625Z,7.9
2017-02-12T04:32:59.560Z,7.81
2017-02-12T04:33:59.497Z,7.81
2017-02-12T04:34:59.437Z,7.9
2017-02-12T04:35:59.371Z,7.81
2017-02-12T04:36:59.306Z,7.81
2017-02-12T04:37:59.243Z,7.9
2017-02-12T04:38:59.189Z,7.71
2017-02-12T04:39:58.763Z,7.9
2017-02-12T04:40:59.053Z,7.81
2017-02-12T04:41:58.992Z,8
2017-02-12T04:42:58.928Z,8
2017-02-12T04:43:58.863Z,7.81
2017-02-12T04:44:58.803Z,8
2017-02-12T04:45:58.734Z,8
2017-02-12T04:46:58.738Z,8
2017-02-12T04:47:58.609Z,8
2017-02-12T04:48:58.542Z,8.2
2017-02-12T04:49:58.479Z,8.1
2017-02-12T04:50:58.416Z,8
2017-02-12T04:51:58.355Z,8
2017-02-12T04:52:58.289Z,8
2017-02-12T04:53:58.226Z,8.1
2017-02-12T04:54:58.164Z,8
2017-02-12T04:55:58.142Z,8
2017-02-12T04:56:58.037Z,8.2
2017-02-12T04:57:57.970Z,8.1
2017-02-12T04:58:57.910Z,8.1
2017-02-12T04:59:57.843Z,8
2017-02-12T05:00:57.779Z,8.2
2017-02-12T05:01:57.716Z,7.9
2017-02-12T05:02:57.654Z,8
2017-02-12T05:03:57.587Z,8
2017-02-12T05:04:57.530Z,8.2
2017-02-12T05:05:57.466Z,8.1
2017-02-12T05:06:57.402Z,8
2017-02-12T05:07:57.345Z,7.9
2017-02-12T05:08:57.278Z,8.2
2017-02-12T05:09:57.210Z,8.29
2017-02-12T05:10:57.146Z,8
2017-02-12T05:11:57.145Z,8
2017-02-12T05:12:57.017Z,8
2017-02-12T05:13:56.952Z,7.81
2017-02-12T05:14:56.888Z,8.29
2017-02-12T05:15:56.825Z,8.1
2017-02-12T05:16:56.765Z,8.39
2017-02-12T05:17:56.700Z,8.29
2017-02-12T05:18:56.640Z,7.9
2017-02-12T05:19:56.575Z,8.29
2017-02-12T05:20:56.511Z,8.48
2017-02-12T05:21:56.446Z,8.39
2017-02-12T05:22:56.385Z,8.39
2017-02-12T05:23:56.317Z,8.29
2017-02-12T05:24:56.255Z,8.39
2017-02-12T05:25:56.189Z,8.29
2017-02-12T05:26:56.130Z,8.39
2017-02-12T05:27:56.062Z,8.39
2017-02-12T05:28:56.003Z,8.39
2017-02-12T05:29:55.933Z,8.29
2017-02-12T05:30:55.873Z,8.39
2017-02-12T05:31:55.808Z,8.29
2017-02-12T05:32:55.746Z,8.29
2017-02-12T05:33:55.683Z,8.29
2017-02-12T05:34:55.619Z,8.2
2017-02-12T05:35:55.555Z,8.48
2017-02-12T05:36:55.494Z,8.1
2017-02-12T05:37:55.425Z,8.2
2017-02-12T05:38:55.362Z,8.29
2017-02-12T05:39:55.298Z,8.2
2017-02-12T05:40:55.237Z,8.1
2017-02-12T05:41:55.176Z,8.1
2017-02-12T05:42:55.112Z,8.2
2017-02-12T05:43:55.057Z,8.2
2017-02-12T05:44:54.985Z,8.29
2017-02-12T05:45:54.918Z,8.2
2017-02-12T05:46:54.856Z,8.2
2017-02-12T05:47:54.796Z,8.1
2017-02-12T05:48:54.742Z,8.1
2017-02-12T05:49:54.668Z,8.29
2017-02-12T05:50:54.602Z,8.1
2017-02-12T05:51:54.544Z,8.2
2017-02-12T05:52:54.474Z,8.1
2017-02-12T05:53:54.440Z,8.1
2017-02-12T05:54:54.348Z,8.2
2017-02-12T05:55:54.283Z,8.1
2017-02-12T05:56:54.222Z,8.2
2017-02-12T05:57:54.159Z,8.2
2017-02-12T05:58:54.092Z,8.29
2017-02-12T05:59:54.034Z,8.2
2017-02-12T06:00:53.971Z,8.2
2017-02-12T06:01:53.902Z,8.1
2017-02-12T06:02:53.848Z,8.1
2017-02-12T06:03:53.815Z,8.2
2017-02-12T06:04:53.709Z,8.2
2017-02-12T06:05:53.657Z,8.29
2017-02-12T06:06:53.581Z,8.2
2017-02-12T06:07:53.527Z,8.1
2017-02-12T06:08:53.457Z,8.29
2017-02-12T06:09:53.393Z,8.2
2017-02-12T06:10:53.578Z,8.29
2017-02-12T06:11:53.267Z,8.1
2017-02-12T06:12:53.201Z,8.1
2017-02-12T06:13:53.140Z,8.29
2017-02-12T06:14:53.078Z,8.1
2017-02-12T06:15:53.013Z,8.2
2017-02-12T06:16:52.951Z,8.1
2017-02-12T06:17:52.893Z,8.1
2017-02-12T06:18:52.820Z,8.2
2017-02-12T06:19:52.757Z,8.2
2017-02-12T06:20:52.695Z,8.2
2017-02-12T06:21:52.631Z,8.48
2017-02-12T06:22:52.568Z,8.2
2017-02-12T06:23:52.504Z,8.29
2017-02-12T06:24:52.443Z,8.29
2017-02-12T06:25:52.417Z,8.1
2017-02-12T06:26:52.314Z,8.29
2017-02-12T06:27:52.249Z,8.1
2017-02-12T06:28:52.184Z,8.2
2017-02-12T06:29:52.123Z,8.29
2017-02-12T06:30:52.057Z,8
2017-02-12T06:31:52.000Z,8.48
2017-02-12T06:32:51.929Z,8
2017-02-12T06:33:51.874Z,8.2
2017-02-12T06:34:51.809Z,8.2
2017-02-12T06:35:51.743Z,8
2017-02-12T06:36:51.677Z,8.29
2017-02-12T06:37:51.613Z,8.29
2017-02-12T06:38:51.549Z,8
2017-02-12T06:39:51.487Z,8.2
2017-02-12T06:40:51.425Z,8
2017-02-12T06:41:51.359Z,8
2017-02-12T06:42:51.300Z,8.2
2017-02-12T06:43:51.233Z,8.1
2017-02-12T06:44:51.167Z,8.29
2017-02-12T06:45:51.104Z,8.1
2017-02-12T06:46:51.041Z,8.2
2017-02-12T06:47:50.978Z,8.29
2017-02-12T06:48:50.914Z,8.1
2017-02-12T06:49:50.849Z,8.1
2017-02-12T06:50:50.788Z,8.29
2017-02-12T06:51:50.724Z,8.29
2017-02-12T06:52:50.657Z,8.2
2017-02-12T06:53:50.596Z,8.29
2017-02-12T06:54:50.533Z,8.39
2017-02-12T06:55:50.469Z,8.48
2017-02-12T06:56:50.403Z,8.48
2017-02-12T06:57:50.341Z,8.29
2017-02-12T06:58:50.279Z,8.29
2017-02-12T06:59:50.212Z,8.29
2017-02-12T07:00:50.161Z,8.1
2017-02-12T07:01:50.085Z,8.29
2017-02-12T07:02:50.053Z,8.2
2017-02-12T07:03:49.964Z,8.29
2017-02-12T07:04:49.896Z,8.48
2017-02-12T07:05:49.840Z,8.39
2017-02-12T07:06:49.768Z,8.39
2017-02-12T07:07:49.705Z,8.58
2017-02-12T07:08:49.650Z,8.48
2017-02-12T07:09:49.581Z,8.58
2017-02-12T07:10:49.516Z,8.39
2017-02-12T07:11:49.449Z,8.58
2017-02-12T07:12:49.383Z,8.48
2017-02-12T07:13:49.329Z,8.58
2017-02-12T07:14:49.265Z,8.48
2017-02-12T07:15:49.199Z,8.48
2017-02-12T07:16:49.137Z,8.39
2017-02-12T07:17:49.068Z,8.39
2017-02-12T07:18:49.006Z,8.48
2017-02-12T07:19:48.944Z,8.39
2017-02-12T07:20:48.877Z,8.48
2017-02-12T07:21:48.831Z,8.48
2017-02-12T07:22:48.750Z,8.48
2017-02-12T07:23:48.689Z,8.48
2017-02-12T07:24:48.626Z,8.48
2017-02-12T07:25:48.563Z,8.48
2017-02-12T07:26:48.498Z,8.39
2017-02-12T07:27:48.439Z,8.48
2017-02-12T07:28:48.408Z,8.48
2017-02-12T07:29:48.308Z,8.58
2017-02-12T07:30:48.245Z,8.48
2017-02-12T07:31:48.180Z,8.48
2017-02-12T07:32:48.161Z,8.48
2017-02-12T07:33:48.066Z,8.48
2017-02-12T07:34:47.991Z,8.48
2017-02-12T07:35:47.931Z,8.58
2017-02-12T07:36:47.876Z,8.58
2017-02-12T07:37:47.800Z,8.58
2017-02-12T07:38:47.735Z,8.39
2017-02-12T07:39:47.673Z,8.48
2017-02-12T07:40:47.608Z,8.39
2017-02-12T07:41:47.546Z,8.48
2017-02-12T07:42:47.483Z,8.39
2017-02-12T07:43:47.419Z,8.48
2017-02-12T07:44:47.352Z,8.48
2017-02-12T07:45:47.304Z,8.39
2017-02-12T07:46:47.225Z,8.48
2017-02-12T07:47:47.162Z,8.39
2017-02-12T07:48:47.100Z,8.48
2017-02-12T07:49:47.036Z,8.39
2017-02-12T07:50:46.974Z,8.29
2017-02-12T07:51:46.909Z,8.48
2017-02-12T07:52:46.844Z,8.68
2017-02-12T07:53:46.782Z,8.48
2017-02-12T07:54:46.717Z,8.29
2017-02-12T07:55:46.655Z,8.39
2017-02-12T07:56:46.593Z,8.29
2017-02-12T07:57:46.526Z,8.39
2017-02-12T07:58:46.474Z,8.39
2017-02-12T07:59:46.010Z,8.29
2017-02-12T08:00:46.338Z,8.48
2017-02-12T08:01:46.275Z,8.39
2017-02-12T08:02:46.209Z,8.29
2017-02-12T08:03:46.143Z,8.39
2017-02-12T08:04:46.078Z,8.29
2017-02-12T08:05:46.020Z,8.29
2017-02-12T08:06:45.957Z,8.39
2017-02-12T08:07:45.890Z,8.39
2017-02-12T08:08:45.825Z,8.29
2017-02-12T08:09:45.763Z,8.29
2017-02-12T08:10:45.312Z,8.39
2017-02-12T08:11:45.634Z,8.29
2017-02-12T08:12:45.573Z,8.29
2017-02-12T08:13:45.512Z,8.39
2017-02-12T08:14:45.447Z,8.39
2017-02-12T08:15:45.384Z,8.39
2017-02-12T08:16:45.319Z,8.29
2017-02-12T08:17:45.257Z,8.29
2017-02-12T08:18:45.190Z,8.29
2017-02-12T08:19:45.129Z,8.2
2017-02-12T08:20:45.067Z,8.39
2017-02-12T08:21:44.999Z,8.39
2017-02-12T08:22:44.935Z,8.39
2017-02-12T08:23:44.873Z,8.48
2017-02-12T08:24:44.811Z,8.39
2017-02-12T08:25:44.747Z,8.48
2017-02-12T08:26:44.682Z,8.48
2017-02-12T08:27:44.622Z,8.48
2017-02-12T08:28:44.554Z,8.48
2017-02-12T08:29:44.489Z,8.48
2017-02-12T08:30:44.429Z,8.39
2017-02-12T08:31:44.364Z,8.39
2017-02-12T08:32:44.301Z,8.2
2017-02-12T08:33:44.237Z,8.48
2017-02-12T08:34:44.171Z,8.1
2017-02-12T08:35:44.114Z,8.1
2017-02-12T08:36:44.055Z,8.2
2017-02-12T08:37:43.980Z,8.2
2017-02-12T08:38:43.922Z,8.2
2017-02-12T08:39:43.867Z,8.29
2017-02-12T08:40:43.808Z,8.29
2017-02-12T08:41:43.726Z,8.29
2017-02-12T08:42:43.665Z,8.29
2017-02-12T08:43:43.602Z,8.2
2017-02-12T08:44:43.540Z,8.2
2017-02-12T08:45:43.474Z,8.29
2017-02-12T08:46:43.411Z,8.48
2017-02-12T08:47:43.359Z,8.2
2017-02-12T08:48:43.287Z,8.68
2017-02-12T08:49:43.219Z,8.48
2017-02-12T08:50:43.188Z,8.39
2017-02-12T08:51:43.094Z,8.58
2017-02-12T08:52:43.032Z,8.58
2017-02-12T08:53:42.977Z,8.29
2017-02-12T08:54:42.903Z,8.68
2017-02-12T08:55:42.838Z,8.58
2017-02-12T08:56:42.788Z,8.58
2017-02-12T08:57:42.714Z,8.58
2017-02-12T08:58:42.650Z,8.58
2017-02-12T08:59:42.581Z,8.58
2017-02-12T09:00:42.155Z,8.78
2017-02-12T09:01:42.468Z,8.58
2017-02-12T09:02:42.007Z,8.87
2017-02-12T09:03:42.330Z,8.87
2017-02-12T09:04:42.266Z,8.68
2017-02-12T09:05:42.205Z,8.87
2017-02-12T09:06:42.146Z,8.58
2017-02-12T09:07:42.087Z,8.87
2017-02-12T09:08:42.025Z,8.78
2017-02-12T09:09:41.956Z,8.87
2017-02-12T09:10:41.886Z,8.78
2017-02-12T09:11:41.823Z,8.87
2017-02-12T09:12:41.760Z,8.78
2017-02-12T09:13:41.693Z,8.87
2017-02-12T09:14:41.631Z,8.87
2017-02-12T09:15:41.571Z,8.68
2017-02-12T09:16:41.504Z,8.87
2017-02-12T09:17:41.441Z,8.78
2017-02-12T09:18:41.434Z,8.87
2017-02-12T09:19:41.316Z,8.68
2017-02-12T09:20:41.249Z,8.58
2017-02-12T09:21:40.798Z,8.87
2017-02-12T09:22:41.129Z,8.68
2017-02-12T09:23:41.086Z,8.58
2017-02-12T09:24:40.992Z,8.87
2017-02-12T09:25:40.929Z,8.58
2017-02-12T09:26:40.869Z,8.58
2017-02-12T09:27:40.803Z,8.58
2017-02-12T09:28:40.742Z,8.58
2017-02-12T09:29:40.677Z,8.68
2017-02-12T09:30:40.227Z,8.68
2017-02-12T09:31:40.551Z,8.68
2017-02-12T09:32:40.531Z,8.68
2017-02-12T09:33:40.431Z,8.68
2017-02-12T09:34:40.360Z,8.58
2017-02-12T09:35:40.308Z,8.78
2017-02-12T09:36:40.229Z,8.58
2017-02-12T09:37:40.168Z,8.58
2017-02-12T09:38:40.101Z,8.58
2017-02-12T09:39:40.079Z,8.58
2017-02-12T09:40:39.975Z,8.58
2017-02-12T09:41:39.914Z,8.58
2017-02-12T09:42:39.849Z,8.48
2017-02-12T09:43:39.788Z,8.48
2017-02-12T09:44:39.732Z,8.58
2017-02-12T09:45:39.660Z,8.58
2017-02-12T09:46:39.608Z,8.78
2017-02-12T09:47:39.532Z,8.58
2017-02-12T09:48:39.468Z,8.58
2017-02-12T09:49:39.405Z,8.68
2017-02-12T09:50:39.342Z,8.58
2017-02-12T09:51:39.276Z,8.68
2017-02-12T09:52:39.213Z,8.68
2017-02-12T09:53:39.149Z,8.68
2017-02-12T09:54:39.088Z,8.58
2017-02-12T09:55:39.032Z,8.48
2017-02-12T09:56:38.959Z,8.68
2017-02-12T09:57:38.897Z,8.68
2017-02-12T09:58:38.834Z,8.68
2017-02-12T09:59:38.768Z,8.78
2017-02-12T10:00:38.705Z,8.78
2017-02-12T10:01:38.640Z,8.58
2017-02-12T10:02:38.590Z,8.58
2017-02-12T10:03:38.517Z,8.58
2017-02-12T10:04:38.451Z,8.58
2017-02-12T10:05:38.387Z,8.58
2017-02-12T10:06:38.323Z,8.48
2017-02-12T10:07:38.260Z,8.48
2017-02-12T10:08:38.197Z,8.58
2017-02-12T10:09:38.131Z,8.48
2017-02-12T10:10:38.068Z,8.48
2017-02-12T10:11:38.008Z,8.58
2017-02-12T10:12:37.944Z,8.48
2017-02-12T10:13:37.881Z,8.58
2017-02-12T10:14:37.815Z,8.48
2017-02-12T10:15:37.750Z,8.48
2017-02-12T10:16:37.687Z,8.48
2017-02-12T10:17:37.624Z,8.58
2017-02-12T10:18:37.563Z,8.68
2017-02-12T10:19:37.498Z,8.48
2017-02-12T10:20:37.433Z,8.68
2017-02-12T10:21:37.370Z,8.58
2017-02-12T10:22:37.310Z,8.68
2017-02-12T10:23:37.248Z,8.68
2017-02-12T10:24:37.253Z,8.48
2017-02-12T10:25:37.120Z,8.68
2017-02-12T10:26:37.056Z,8.68
2017-02-12T10:27:36.988Z,8.48
2017-02-12T10:28:36.932Z,8.39
2017-02-12T10:29:36.864Z,8.39
2017-02-12T10:30:36.800Z,8.48
2017-02-12T10:31:36.737Z,8.68
2017-02-12T10:32:36.718Z,8.68
2017-02-12T10:33:36.610Z,8.48
2017-02-12T10:34:36.548Z,8.78
2017-02-12T10:35:36.481Z,8.48
2017-02-12T10:36:36.418Z,8.39
2017-02-12T10:37:36.362Z,8.29
2017-02-12T10:38:36.295Z,8.58
2017-02-12T10:39:36.231Z,8.39
2017-02-12T10:40:36.164Z,8.48
2017-02-12T10:41:36.099Z,8.48
2017-02-12T10:42:36.035Z,8.68
2017-02-12T10:43:35.980Z,8.78
2017-02-12T10:44:35.910Z,8.48
2017-02-12T10:45:35.851Z,8.58
2017-02-12T10:46:35.783Z,8.78
2017-02-12T10:47:35.720Z,8.68
2017-02-12T10:48:35.657Z,8.87
2017-02-12T10:49:35.590Z,8.78
2017-02-12T10:50:35.140Z,8.78
2017-02-12T10:51:35.471Z,8.78
2017-02-12T10:52:35.404Z,8.87
2017-02-12T10:53:35.342Z,9.06
2017-02-12T10:54:35.277Z,8.87
2017-02-12T10:55:35.210Z,8.78
2017-02-12T10:56:35.147Z,8.87
2017-02-12T10:57:35.085Z,8.87
2017-02-12T10:58:35.021Z,8.87
2017-02-12T10:59:34.959Z,8.87
2017-02-12T11:00:34.894Z,8.87
2017-02-12T11:01:34.831Z,8.68
2017-02-12T11:02:34.764Z,9.16
2017-02-12T11:03:34.710Z,8.97
2017-02-12T11:04:34.637Z,8.78
2017-02-12T11:05:34.824Z,9.06
2017-02-12T11:06:34.515Z,8.87
2017-02-12T11:07:34.451Z,8.87
2017-02-12T11:08:34.382Z,8.87
2017-02-12T11:09:34.523Z,8.87
2017-02-12T11:10:34.258Z,8.97
2017-02-12T11:11:34.199Z,8.87
2017-02-12T11:12:34.129Z,8.87
2017-02-12T11:13:33.679Z,8.97
2017-02-12T11:14:34.007Z,8.97
2017-02-12T11:15:33.940Z,8.97
2017-02-12T11:16:33.881Z,8.87
2017-02-12T11:17:34.093Z,8.97
2017-02-12T11:18:33.751Z,8.97
2017-02-12T11:19:33.689Z,9.06
2017-02-12T11:20:33.627Z,8.97
2017-02-12T11:21:33.558Z,8.87
2017-02-12T11:22:33.498Z,9.26
2017-02-12T11:23:33.476Z,9.06
2017-02-12T11:24:33.367Z,9.26
2017-02-12T11:25:33.305Z,9.16
2017-02-12T11:26:33.242Z,9.07
2017-02-12T11:27:33.178Z,9.16
2017-02-12T11:28:32.729Z,9.36
2017-02-12T11:29:33.049Z,9.36
2017-02-12T11:30:32.985Z,9.36
2017-02-12T11:31:32.926Z,9.16
2017-02-12T11:32:32.862Z,9.36
2017-02-12T11:33:32.797Z,9.36
2017-02-12T11:34:32.773Z,9.36
2017-02-12T11:35:32.668Z,9.16
2017-02-12T11:36:32.608Z,9.26
2017-02-12T11:37:32.546Z,9.26
2017-02-12T11:38:32.480Z,9.26
2017-02-12T11:39:32.414Z,9.26
2017-02-12T11:40:32.351Z,9.27
2017-02-12T11:41:32.291Z,9.26
2017-02-12T11:42:32.224Z,9.26
2017-02-12T11:43:32.159Z,9.26
2017-02-12T11:44:32.099Z,9.26
2017-02-12T11:45:32.035Z,9.26
2017-02-12T11:46:31.976Z,9.45
2017-02-12T11:47:31.908Z,9.36
2017-02-12T11:48:31.847Z,9.36
2017-02-12T11:49:31.780Z,9.36
2017-02-12T11:50:31.716Z,9.26
2017-02-12T11:51:31.656Z,9.36
2017-02-12T11:52:31.589Z,9.36
2017-02-12T11:53:31.526Z,9.16
2017-02-12T11:54:31.462Z,9.45
2017-02-12T11:55:31.403Z,9.26
2017-02-12T11:56:31.335Z,9.27
2017-02-12T11:57:31.272Z,9.45
2017-02-12T11:58:31.206Z,9.26
2017-02-12T11:59:31.146Z,9.36
2017-02-12T12:00:31.335Z,8.58
2017-02-12T12:01:31.017Z,9.36
2017-02-12T12:02:30.955Z,9.36
2017-02-12T12:03:30.891Z,9.36
2017-02-12T12:04:30.833Z,9.45
2017-02-12T12:05:30.766Z,9.45
2017-02-12T12:06:30.701Z,9.26
2017-02-12T12:07:30.678Z,9.45
2017-02-12T12:08:30.574Z,9.26
2017-02-12T12:09:30.516Z,9.26
2017-02-12T12:10:30.449Z,9.16
2017-02-12T12:11:30.384Z,9.16
2017-02-12T12:12:30.338Z,9.26
2017-02-12T12:13:30.260Z,9.26
2017-02-12T12:14:30.196Z,9.17
2017-02-12T12:15:30.130Z,9.26
2017-02-12T12:16:30.065Z,9.27
2017-02-12T12:17:29.615Z,8.78
2017-02-12T12:18:29.942Z,9.27
2017-02-12T12:19:29.908Z,9.26
2017-02-12T12:20:29.810Z,9.36
2017-02-12T12:21:29.748Z,9.26
2017-02-12T12:22:29.686Z,9.06
2017-02-12T12:23:29.622Z,9.26
2017-02-12T12:24:29.562Z,9.06
2017-02-12T12:25:29.795Z,9.06
2017-02-12T12:26:29.428Z,9.26
2017-02-12T12:27:29.367Z,9.36
2017-02-12T12:28:28.914Z,9.26
2017-02-12T12:29:29.242Z,9.26
2017-02-12T12:30:29.177Z,9.06
2017-02-12T12:31:29.113Z,9.26
2017-02-12T12:32:29.048Z,9.26
2017-02-12T12:33:28.987Z,8.87
2017-02-12T12:34:28.923Z,9.26
2017-02-12T12:35:28.468Z,8.97
2017-02-12T12:36:28.407Z,9.26
2017-02-12T12:37:28.737Z,9.06
2017-02-12T12:38:28.668Z,9.06
2017-02-12T12:39:28.614Z,9.17
2017-02-12T12:40:28.542Z,9.07
2017-02-12T12:41:28.478Z,9.06
2017-02-12T12:42:28.422Z,9.06
2017-02-12T12:43:28.351Z,9.17
2017-02-12T12:44:28.287Z,8.87
2017-02-12T12:45:28.225Z,9.07
2017-02-12T12:46:28.162Z,9.36
2017-02-12T12:47:28.101Z,8.78
2017-02-12T12:48:28.040Z,9.07
2017-02-12T12:49:27.579Z,9.06
2017-02-12T12:50:27.946Z,9.36
2017-02-12T12:51:27.843Z,9.36
2017-02-12T12:52:27.778Z,9.45
2017-02-12T12:53:27.715Z,9.16
2017-02-12T12:54:27.663Z,9.16
2017-02-12T12:55:27.591Z,9.36
2017-02-12T12:56:27.564Z,9.16
2017-02-12T12:57:27.460Z,9.36
2017-02-12T12:58:27.397Z,8.78
2017-02-12T12:59:27.339Z,9.36
2017-02-12T13:00:27.269Z,8.78
2017-02-12T13:01:27.206Z,9.45
2017-02-12T13:02:27.145Z,9.45
2017-02-12T13:03:27.078Z,8.78
2017-02-12T13:04:27.017Z,8.78
2017-02-12T13:05:26.955Z,8.78
2017-02-12T13:06:26.891Z,8.78
2017-02-12T13:07:26.826Z,9.45
2017-02-12T13:08:26.764Z,9.26
2017-02-12T13:09:26.775Z,9.55
2017-02-12T13:10:26.635Z,8.87
2017-02-12T13:11:26.574Z,9.36
2017-02-12T13:12:26.509Z,8.87
2017-02-12T13:13:26.447Z,8.78
2017-02-12T13:14:26.381Z,8.87
2017-02-12T13:15:26.317Z,9.36
2017-02-12T13:16:26.287Z,8.87
2017-02-12T13:17:26.198Z,9.36
2017-02-12T13:18:26.135Z,8.87
2017-02-12T13:19:26.066Z,9.45
2017-02-12T13:20:25.613Z,9.36
2017-02-12T13:21:25.952Z,9.06
2017-02-12T13:22:25.877Z,9.45
2017-02-12T13:23:25.811Z,8.87
2017-02-12T13:24:25.748Z,8.87
2017-02-12T13:25:25.690Z,8.97